createdAt,value
2023-05-30T00:01:32.878Z,8.73
2023-05-30T00:04:01.544Z,11.23
2023-05-30T00:06:29.585Z,12.95
2023-05-30T00:08:56.965Z,10.85
2023-05-30T00:11:24.841Z,14.82
2023-05-30T00:13:52.513Z,19.77
2023-05-30T00:16:21.398Z,8.25
2023-05-30T00:18:48.843Z,12.95
2023-05-30T00:21:19.006Z,10.90
2023-05-30T00:23:47.427Z,11.38
2023-05-30T00:26:14.715Z,17.65
2023-05-30T00:28:48.996Z,12.40
2023-05-30T00:31:16.395Z,12.43
2023-05-30T00:33:43.690Z,10.70
2023-05-30T00:36:11.186Z,9.38
2023-05-30T00:38:40.894Z,13.27
2023-05-30T00:41:08.647Z,10.80
2023-05-30T00:43:37.290Z,11.18
2023-05-30T00:46:07.462Z,9.65
2023-05-30T00:48:35.502Z,10.32
2023-05-30T00:51:11.985Z,15.93
2023-05-30T00:53:42.974Z,13.55
2023-05-30T00:56:12.188Z,9.68
2023-05-30T00:58:40.822Z,14.77
2023-05-30T01:01:09.094Z,13.50
2023-05-30T01:03:38.895Z,10.60
2023-05-30T01:06:08.214Z,11.05
2023-05-30T01:08:37.373Z,12.95
2023-05-30T01:11:44.374Z,16.33
2023-05-30T01:14:44.164Z,13.30
2023-05-30T01:17:32.461Z,12.82
2023-05-30T01:20:24.015Z,12.68
2023-05-30T01:24:07.580Z,10.25
2023-05-30T01:27:19.823Z,13.48
2023-05-30T01:29:48.484Z,13.48
2023-05-30T01:32:17.352Z,9.93
2023-05-30T01:34:44.696Z,8.40
2023-05-30T01:37:14.498Z,13.57
2023-05-30T01:39:42.473Z,15.40
2023-05-30T01:42:27.285Z,13.30
2023-05-30T01:45:19.414Z,13.45
2023-05-30T01:48:18.148Z,9.10
2023-05-30T01:50:51.113Z,12.13
2023-05-30T01:53:34.215Z,18.38
2023-05-30T01:56:03.097Z,11.43
2023-05-30T01:58:35.787Z,9.52
2023-05-30T02:01:05.794Z,9.77
2023-05-30T02:03:33.439Z,8.45
2023-05-30T02:06:01.951Z,14.63
2023-05-30T02:08:29.690Z,13.70
2023-05-30T02:10:57.365Z,12.75
2023-05-30T02:13:25.156Z,15.05
2023-05-30T02:15:52.500Z,15.80
2023-05-30T02:18:20.860Z,13.60
2023-05-30T02:20:49.974Z,11.65
2023-05-30T02:23:17.557Z,14.93
2023-05-30T02:25:44.895Z,12.93
2023-05-30T02:28:12.329Z,9.85
2023-05-30T02:30:41.444Z,10.27
2023-05-30T02:33:08.844Z,9.98
2023-05-30T02:35:36.476Z,12.80
2023-05-30T02:38:04.555Z,12.07
2023-05-30T02:40:35.538Z,12.93
2023-05-30T02:43:09.604Z,8.02
2023-05-30T02:45:44.578Z,13.30
2023-05-30T02:48:20.281Z,13.82
2023-05-30T02:50:47.743Z,14.68
2023-05-30T02:53:22.665Z,13.45
2023-05-30T02:55:50.145Z,12.48
2023-05-30T02:58:43.969Z,18.00
2023-05-30T03:01:36.485Z,13.68
2023-05-30T03:04:04.660Z,12.65
2023-05-30T03:06:41.662Z,10.13
2023-05-30T03:09:26.076Z,13.35
2023-05-30T03:11:53.406Z,14.02
2023-05-30T03:14:21.903Z,10.77
2023-05-30T03:16:49.615Z,18.55
2023-05-30T03:19:18.765Z,14.07
2023-05-30T03:21:46.925Z,15.88
2023-05-30T03:24:16.453Z,8.48
2023-05-30T03:26:45.850Z,13.00
2023-05-30T03:29:15.323Z,17.48
2023-05-30T03:31:44.781Z,14.07
2023-05-30T03:34:12.449Z,16.13
2023-05-30T03:36:41.571Z,13.50
2023-05-30T03:39:11.578Z,16.85
2023-05-30T03:41:40.530Z,13.05
2023-05-30T03:44:08.311Z,11.55
2023-05-30T03:46:36.296Z,13.02
2023-05-30T03:49:03.939Z,14.93
2023-05-30T03:51:32.933Z,11.48
2023-05-30T03:54:01.261Z,15.73
2023-05-30T03:56:28.557Z,9.23
2023-05-30T03:58:56.010Z,17.55
2023-05-30T04:01:23.369Z,11.55
2023-05-30T04:03:51.780Z,14.32
2023-05-30T04:06:19.621Z,17.35
2023-05-30T04:08:46.932Z,10.57
2023-05-30T04:11:16.338Z,13.43
2023-05-30T04:13:43.700Z,11.40
2023-05-30T04:16:11.413Z,20.83
2023-05-30T04:18:44.782Z,17.38
2023-05-30T04:21:15.929Z,16.33
2023-05-30T04:23:50.128Z,12.20
2023-05-30T04:26:18.737Z,13.55
2023-05-30T04:28:47.192Z,13.00
2023-05-30T04:33:49.258Z,11.85
2023-05-30T04:36:19.679Z,16.42
2023-05-30T04:38:50.467Z,10.52
2023-05-30T04:41:22.037Z,15.30
2023-05-30T04:43:55.568Z,14.98
2023-05-30T04:46:28.913Z,14.50
2023-05-30T04:49:01.795Z,17.17
2023-05-30T04:51:30.420Z,12.15
2023-05-30T04:54:00.204Z,13.98
2023-05-30T04:56:28.256Z,10.70
2023-05-30T04:58:55.669Z,13.35
2023-05-30T05:01:25.306Z,12.65
2023-05-30T05:03:53.667Z,21.85
2023-05-30T05:06:23.838Z,8.65
2023-05-30T05:08:51.297Z,16.23
2023-05-30T05:11:18.740Z,12.15
2023-05-30T05:13:47.341Z,15.80
2023-05-30T05:16:15.000Z,14.98
2023-05-30T05:18:43.813Z,13.48
2023-05-30T05:21:13.750Z,8.85
2023-05-30T05:23:41.196Z,12.18
2023-05-30T05:26:08.933Z,14.60
2023-05-30T05:28:36.920Z,15.95
2023-05-30T05:31:07.249Z,14.35
2023-05-30T05:33:35.363Z,13.08
2023-05-30T05:36:04.074Z,11.52
2023-05-30T05:38:32.476Z,12.52
2023-05-30T05:40:59.944Z,15.63
2023-05-30T05:43:27.442Z,14.23
2023-05-30T05:45:54.882Z,12.18
2023-05-30T05:48:22.386Z,14.05
2023-05-30T05:50:49.778Z,13.23
2023-05-30T05:53:17.136Z,13.52
2023-05-30T05:55:48.092Z,9.82
2023-05-30T05:58:15.726Z,17.08
2023-05-30T06:00:43.218Z,16.60
2023-05-30T06:03:10.578Z,12.27
2023-05-30T06:05:38.321Z,10.00
2023-05-30T06:08:06.021Z,15.27
2023-05-30T06:10:33.460Z,11.48
2023-05-30T06:13:00.990Z,9.98
2023-05-30T06:15:28.280Z,12.15
2023-05-30T06:17:55.687Z,11.07
2023-05-30T06:20:23.376Z,13.40
2023-05-30T06:22:50.746Z,10.57
2023-05-30T06:25:18.224Z,12.88
2023-05-30T06:27:45.628Z,6.35
2023-05-30T06:30:13.239Z,12.50
2023-05-30T06:32:40.831Z,7.68
2023-05-30T06:35:10.232Z,10.32
2023-05-30T06:37:37.675Z,10.00
2023-05-30T06:40:11.699Z,14.90
2023-05-30T06:42:39.004Z,9.60
2023-05-30T06:45:07.175Z,8.50
2023-05-30T06:47:34.538Z,11.55
2023-05-30T06:50:02.005Z,12.13
2023-05-30T06:52:29.827Z,11.00
2023-05-30T06:54:57.506Z,10.60
2023-05-30T06:57:26.653Z,12.20
2023-05-30T06:59:54.005Z,13.65
2023-05-30T07:02:21.715Z,9.88
2023-05-30T07:04:49.161Z,17.08
2023-05-30T07:07:16.641Z,11.75
2023-05-30T07:09:43.895Z,12.18
2023-05-30T07:12:11.500Z,13.35
2023-05-30T07:14:38.930Z,10.52
2023-05-30T07:17:07.953Z,10.68
2023-05-30T07:19:35.397Z,11.93
2023-05-30T07:22:06.430Z,11.68
2023-05-30T07:24:34.921Z,10.80
2023-05-30T07:27:02.800Z,11.40
2023-05-30T07:29:30.349Z,10.88
2023-05-30T07:31:57.778Z,9.80
2023-05-30T07:34:25.069Z,12.60
2023-05-30T07:36:52.654Z,14.20
2023-05-30T07:39:20.738Z,8.20
2023-05-30T07:41:48.085Z,11.07
2023-05-30T07:44:17.127Z,10.98
2023-05-30T07:46:44.624Z,11.50
2023-05-30T07:49:12.045Z,10.02
2023-05-30T07:51:39.488Z,11.35
2023-05-30T07:54:07.011Z,9.20
2023-05-30T07:56:34.881Z,9.40
2023-05-30T07:59:03.585Z,13.40
2023-05-30T08:01:31.826Z,11.90
2023-05-30T08:03:59.217Z,8.50
2023-05-30T08:06:27.414Z,17.17
2023-05-30T08:08:55.096Z,14.32
2023-05-30T08:11:22.388Z,10.48
2023-05-30T08:13:51.130Z,10.43
2023-05-30T08:16:19.072Z,9.55
2023-05-30T08:18:47.198Z,10.27
2023-05-30T08:21:14.661Z,10.07
2023-05-30T08:23:47.143Z,10.95
2023-05-30T08:26:14.740Z,15.40
2023-05-30T08:28:42.101Z,12.48
2023-05-30T08:31:09.928Z,10.18
2023-05-30T08:33:38.109Z,10.93
2023-05-30T08:36:05.657Z,10.93
2023-05-30T08:38:32.990Z,30.20
2023-05-30T08:41:00.715Z,9.30
2023-05-30T08:43:28.569Z,10.93
2023-05-30T08:45:57.289Z,9.63
2023-05-30T08:48:28.700Z,8.88
2023-05-30T08:50:56.271Z,8.95
2023-05-30T08:53:36.928Z,8.73
2023-05-30T08:56:22.537Z,13.25
2023-05-30T08:58:52.488Z,11.32
2023-05-30T09:01:21.065Z,8.77
2023-05-30T09:03:50.737Z,12.05
2023-05-30T09:06:19.138Z,10.55
2023-05-30T09:08:49.376Z,13.75
2023-05-30T09:11:17.839Z,10.63
2023-05-30T09:13:46.583Z,9.32
2023-05-30T09:16:14.648Z,17.30
2023-05-30T09:18:42.037Z,12.00
2023-05-30T09:21:10.283Z,9.77
2023-05-30T09:23:42.342Z,10.75
2023-05-30T09:26:14.662Z,11.68
2023-05-30T09:28:49.775Z,9.63
2023-05-30T09:31:18.182Z,12.85
2023-05-30T09:33:53.252Z,11.48
2023-05-30T09:36:26.012Z,12.35
2023-05-30T09:39:05.251Z,11.65
2023-05-30T09:41:35.022Z,8.55
2023-05-30T09:44:07.208Z,11.80
2023-05-30T09:46:36.570Z,14.43
2023-05-30T09:49:14.577Z,10.80
2023-05-30T09:51:43.009Z,11.43
2023-05-30T09:54:10.923Z,13.95
2023-05-30T09:56:42.004Z,10.77
2023-05-30T09:59:15.654Z,9.63
2023-05-30T10:01:47.482Z,9.80
2023-05-30T10:04:20.735Z,15.55
2023-05-30T10:06:52.688Z,14.93
2023-05-30T10:09:25.603Z,11.43
2023-05-30T10:11:55.143Z,11.68
2023-05-30T10:14:22.670Z,10.32
2023-05-30T10:17:04.950Z,12.32
2023-05-30T10:19:56.640Z,11.52
2023-05-30T10:22:30.196Z,12.43
2023-05-30T10:25:02.828Z,12.20
2023-05-30T10:27:47.406Z,10.15
2023-05-30T10:30:24.670Z,10.90
2023-05-30T10:33:14.833Z,16.60
2023-05-30T10:35:43.890Z,11.23
2023-05-30T10:38:14.144Z,9.77
2023-05-30T10:41:05.154Z,9.40
2023-05-30T10:44:04.539Z,13.63
2023-05-30T10:47:03.413Z,12.10
2023-05-30T10:49:33.170Z,11.48
2023-05-30T10:52:11.670Z,11.40
2023-05-30T10:54:44.191Z,13.27
2023-05-30T10:57:27.043Z,10.43
2023-05-30T11:00:11.105Z,11.70
2023-05-30T11:02:40.512Z,10.52
2023-05-30T11:05:11.311Z,9.70
2023-05-30T11:07:42.687Z,13.07
2023-05-30T11:10:12.970Z,14.70
2023-05-30T11:12:49.336Z,10.50
2023-05-30T11:15:33.461Z,10.57
2023-05-30T11:18:01.194Z,13.73
2023-05-30T11:20:28.699Z,11.13
2023-05-30T11:23:05.264Z,9.85
2023-05-30T11:28:05.194Z,8.43
2023-05-30T11:30:34.693Z,12.20
2023-05-30T11:33:02.644Z,12.10
2023-05-30T11:35:32.841Z,8.90
2023-05-30T11:38:02.604Z,10.23
2023-05-30T11:40:30.231Z,10.52
2023-05-30T11:42:59.139Z,12.15
2023-05-30T11:45:33.643Z,12.40
2023-05-30T11:48:10.038Z,12.43
2023-05-30T11:50:43.382Z,8.80
2023-05-30T11:53:15.895Z,13.07
2023-05-30T11:55:51.815Z,13.52
2023-05-30T11:58:20.723Z,14.47
2023-05-30T12:00:48.806Z,8.57
2023-05-30T12:03:18.265Z,12.77
2023-05-30T12:05:49.544Z,9.98
2023-05-30T12:08:18.401Z,14.65
2023-05-30T12:10:46.694Z,13.85
2023-05-30T12:13:14.295Z,14.82
2023-05-30T12:15:42.727Z,7.75
2023-05-30T12:18:11.462Z,10.95
2023-05-30T12:20:46.951Z,9.38
2023-05-30T12:23:15.936Z,16.33
2023-05-30T12:25:57.287Z,10.77
2023-05-30T12:28:25.155Z,12.40
2023-05-30T12:30:53.837Z,10.63
2023-05-30T12:33:23.302Z,11.52
2023-05-30T12:35:56.926Z,11.43
2023-05-30T12:38:26.151Z,12.23
2023-05-30T12:40:53.563Z,10.57
2023-05-30T12:43:29.834Z,12.20
2023-05-30T12:46:07.185Z,9.38
2023-05-30T12:48:36.385Z,10.73
2023-05-30T12:51:05.459Z,10.23
2023-05-30T12:53:32.807Z,10.10
2023-05-30T12:56:00.141Z,13.57
2023-05-30T12:58:27.522Z,10.13
2023-05-30T13:00:55.170Z,10.93
2023-05-30T13:03:22.856Z,12.20
2023-05-30T13:05:52.310Z,13.00
2023-05-30T13:08:19.954Z,8.93
2023-05-30T13:10:47.497Z,9.05
2023-05-30T13:13:15.169Z,16.52
2023-05-30T13:15:42.455Z,12.45
2023-05-30T13:18:09.798Z,11.43
2023-05-30T13:20:37.166Z,13.88
2023-05-30T13:23:05.760Z,14.45
2023-05-30T13:25:33.378Z,12.82
2023-05-30T13:28:00.970Z,11.35
2023-05-30T13:30:32.019Z,11.48
2023-05-30T13:32:59.932Z,12.32
2023-05-30T13:35:27.391Z,12.18
2023-05-30T13:37:54.857Z,14.20
2023-05-30T13:40:23.224Z,14.65
2023-05-30T13:42:50.645Z,8.38
2023-05-30T13:45:19.831Z,8.00
2023-05-30T13:47:47.446Z,10.43
2023-05-30T13:50:15.484Z,11.23
2023-05-30T13:52:43.017Z,9.52
2023-05-30T13:55:10.664Z,10.50
2023-05-30T13:57:40.620Z,10.02
2023-05-30T14:00:09.959Z,12.35
2023-05-30T14:02:37.648Z,12.23
2023-05-30T14:05:06.192Z,15.90
2023-05-30T14:07:33.584Z,12.80
2023-05-30T14:10:01.057Z,12.43
2023-05-30T14:12:28.942Z,11.32
2023-05-30T14:15:01.910Z,10.98
2023-05-30T14:17:29.291Z,11.40
2023-05-30T14:19:56.690Z,9.80
2023-05-30T14:22:23.986Z,10.13
2023-05-30T14:24:52.066Z,10.73
2023-05-30T14:27:19.413Z,11.10
2023-05-30T14:29:47.290Z,9.45
2023-05-30T14:32:14.713Z,11.35
2023-05-30T14:34:42.718Z,8.43
2023-05-30T14:37:10.593Z,11.52
2023-05-30T14:39:40.057Z,11.60
2023-05-30T14:42:16.174Z,7.45
2023-05-30T14:44:45.607Z,9.43
2023-05-30T14:47:13.286Z,9.32
2023-05-30T14:49:41.000Z,7.38
2023-05-30T14:52:11.044Z,9.23
2023-05-30T14:54:39.394Z,9.63
2023-05-30T14:57:08.101Z,8.98
2023-05-30T14:59:37.813Z,7.85
2023-05-30T15:02:12.551Z,8.63
2023-05-30T15:04:40.497Z,12.07
2023-05-30T15:07:08.988Z,7.97
2023-05-30T15:09:39.306Z,7.78
2023-05-30T15:12:11.128Z,9.27
2023-05-30T15:14:38.705Z,8.43
2023-05-30T15:17:06.418Z,7.93
2023-05-30T15:19:33.748Z,8.73
2023-05-30T15:22:14.486Z,8.73
2023-05-30T15:24:43.021Z,9.82
2023-05-30T15:27:10.364Z,9.30
2023-05-30T15:29:38.508Z,8.40
2023-05-30T15:32:09.873Z,8.55
2023-05-30T15:34:39.821Z,8.48
2023-05-30T15:37:07.695Z,8.05
2023-05-30T15:39:38.619Z,9.65
2023-05-30T15:42:11.582Z,8.85
2023-05-30T15:44:40.175Z,6.93
2023-05-30T15:47:11.463Z,10.95
2023-05-30T15:49:40.440Z,7.95
2023-05-30T15:52:09.989Z,8.20
2023-05-30T15:54:39.350Z,8.38
2023-05-30T15:57:07.937Z,7.50
2023-05-30T15:59:37.261Z,8.50
2023-05-30T16:02:06.236Z,11.25
2023-05-30T16:04:36.504Z,7.43
2023-05-30T16:07:06.431Z,8.45
2023-05-30T16:09:35.633Z,7.75
2023-05-30T16:12:04.536Z,10.00
2023-05-30T16:14:34.375Z,8.40
2023-05-30T16:17:02.241Z,10.20
2023-05-30T16:19:32.161Z,9.60
2023-05-30T16:22:02.334Z,9.43
2023-05-30T16:24:31.182Z,7.43
2023-05-30T16:27:00.054Z,6.15
2023-05-30T16:29:28.551Z,8.63
2023-05-30T16:31:56.791Z,6.28
2023-05-30T16:34:27.648Z,5.78
2023-05-30T16:36:56.047Z,11.00
2023-05-30T16:39:26.648Z,7.43
2023-05-30T16:41:54.890Z,7.30
2023-05-30T16:44:23.237Z,7.88
2023-05-30T16:46:53.913Z,7.13
2023-05-30T16:49:24.192Z,7.65
2023-05-30T16:51:53.654Z,14.02
2023-05-30T16:54:22.118Z,7.97
2023-05-30T16:56:49.772Z,5.75
2023-05-30T16:59:19.311Z,6.13
2023-05-30T17:01:54.910Z,7.38
2023-05-30T17:04:24.291Z,7.18
2023-05-30T17:06:52.237Z,6.80
2023-05-30T17:09:21.771Z,8.65
2023-05-30T17:11:49.355Z,9.18
2023-05-30T17:14:23.464Z,8.90
2023-05-30T17:16:52.076Z,6.97
2023-05-30T17:19:29.084Z,7.72
2023-05-30T17:21:58.409Z,7.50
2023-05-30T17:24:34.225Z,7.75
2023-05-30T17:27:05.833Z,7.00
2023-05-30T17:29:40.809Z,9.10
2023-05-30T17:32:09.664Z,7.15
2023-05-30T17:34:37.981Z,10.18
2023-05-30T17:37:11.021Z,7.95
2023-05-30T17:39:41.987Z,8.80
2023-05-30T17:42:09.998Z,5.88
2023-05-30T17:44:47.711Z,7.40
2023-05-30T17:47:16.158Z,8.43
2023-05-30T17:49:46.237Z,6.85
2023-05-30T17:52:15.253Z,7.93
2023-05-30T17:54:43.873Z,7.30
2023-05-30T17:57:12.395Z,5.93
2023-05-30T17:59:41.931Z,6.47
2023-05-30T18:02:10.428Z,6.68
2023-05-30T18:04:39.582Z,8.48
2023-05-30T18:07:09.300Z,7.38
2023-05-30T18:09:36.817Z,5.65
2023-05-30T18:12:10.613Z,5.85
2023-05-30T18:14:38.428Z,6.15
2023-05-30T18:17:09.169Z,6.43
2023-05-30T18:19:36.821Z,6.03
2023-05-30T18:22:07.402Z,5.20
2023-05-30T18:24:34.740Z,5.50
2023-05-30T18:27:05.615Z,6.10
2023-05-30T18:29:36.417Z,6.57
2023-05-30T18:32:06.485Z,5.78
2023-05-30T18:34:36.293Z,5.80
2023-05-30T18:37:04.906Z,7.07
2023-05-30T18:39:33.608Z,5.18
2023-05-30T18:42:01.195Z,6.75
2023-05-30T18:44:28.965Z,4.57
2023-05-30T18:46:56.805Z,4.40
2023-05-30T18:49:24.577Z,6.47
2023-05-30T18:51:54.458Z,5.82
2023-05-30T18:54:22.364Z,5.35
2023-05-30T18:56:50.758Z,4.22
2023-05-30T18:59:19.665Z,6.25
2023-05-30T19:01:47.110Z,5.50
2023-05-30T19:04:14.798Z,6.95
2023-05-30T19:06:42.668Z,7.72
2023-05-30T19:09:13.359Z,5.20
2023-05-30T19:11:40.763Z,5.43
2023-05-30T19:14:08.126Z,4.20
2023-05-30T19:16:35.701Z,5.15
2023-05-30T19:19:06.242Z,5.57
2023-05-30T19:21:34.211Z,6.53
2023-05-30T19:24:01.814Z,5.00
2023-05-30T19:26:29.703Z,5.70
2023-05-30T19:28:58.348Z,5.00
2023-05-30T19:31:25.896Z,7.47
2023-05-30T19:33:53.253Z,5.15
2023-05-30T19:36:20.541Z,4.70
2023-05-30T19:38:49.266Z,4.90
2023-05-30T19:41:16.806Z,5.82
2023-05-30T19:43:44.126Z,4.88
2023-05-30T19:46:12.298Z,5.82
2023-05-30T19:48:40.072Z,4.85
2023-05-30T19:51:07.501Z,4.30
2023-05-30T19:53:34.807Z,5.35
2023-05-30T19:56:02.167Z,4.03
2023-05-30T19:58:29.495Z,4.32
2023-05-30T20:00:56.956Z,4.93
2023-05-30T20:03:24.874Z,5.03
2023-05-30T20:05:52.248Z,5.90
2023-05-30T20:08:19.538Z,4.32
2023-05-30T20:10:46.958Z,7.13
2023-05-30T20:13:14.522Z,7.15
2023-05-30T20:15:41.889Z,7.00
2023-05-30T20:18:09.488Z,6.18
2023-05-30T20:20:38.037Z,5.53
2023-05-30T20:23:05.565Z,5.15
2023-05-30T20:25:32.835Z,5.50
2023-05-30T20:28:02.887Z,4.95
2023-05-30T20:30:31.808Z,5.20
2023-05-30T20:33:02.602Z,5.78
2023-05-30T20:35:30.439Z,6.93
2023-05-30T20:37:57.760Z,5.88
2023-05-30T20:40:25.130Z,5.15
2023-05-30T20:42:52.467Z,5.00
2023-05-30T20:45:20.038Z,6.60
2023-05-30T20:47:47.568Z,6.97
2023-05-30T20:50:15.551Z,4.07
2023-05-30T20:52:42.970Z,5.85
2023-05-30T20:55:11.461Z,5.88
2023-05-30T20:57:38.773Z,5.05
2023-05-30T21:02:51.666Z,5.47
2023-05-30T21:05:19.395Z,6.43
2023-05-30T21:07:47.037Z,4.40
2023-05-30T21:10:14.835Z,4.43
2023-05-30T21:12:42.263Z,5.75
2023-05-30T21:15:10.114Z,5.20
2023-05-30T21:17:37.643Z,5.10
2023-05-30T21:20:05.712Z,5.10
2023-05-30T21:22:33.107Z,6.47
2023-05-30T21:25:00.382Z,6.07
2023-05-30T21:27:27.708Z,4.70
2023-05-30T21:29:55.044Z,4.88
2023-05-30T21:32:22.532Z,6.75
2023-05-30T21:34:50.036Z,5.43
2023-05-30T21:37:18.969Z,7.72
2023-05-30T21:39:46.394Z,8.18
2023-05-30T21:42:13.662Z,7.63
2023-05-30T21:44:41.135Z,5.18
2023-05-30T21:47:08.742Z,6.43
2023-05-30T21:49:36.027Z,5.40
2023-05-30T21:52:04.594Z,6.30
2023-05-30T21:54:42.272Z,6.18
2023-05-30T21:57:10.306Z,5.60
2023-05-30T21:59:41.408Z,5.88
2023-05-30T22:02:09.749Z,5.80
2023-05-30T22:04:37.236Z,6.32
2023-05-30T22:07:08.367Z,5.95
2023-05-30T22:09:36.739Z,6.32
2023-05-30T22:12:07.156Z,5.28
2023-05-30T22:14:34.750Z,6.55
2023-05-30T22:17:02.097Z,7.18
2023-05-30T22:19:29.340Z,6.75
2023-05-30T22:22:03.579Z,6.47
2023-05-30T22:24:37.114Z,6.78
2023-05-30T22:27:05.970Z,7.15
2023-05-30T22:29:33.522Z,6.53
2023-05-30T22:32:00.847Z,6.40
2023-05-30T22:34:28.212Z,7.40
2023-05-30T22:36:55.540Z,12.32
2023-05-30T22:39:23.004Z,5.65
2023-05-30T22:41:50.430Z,8.75
2023-05-30T22:44:17.863Z,5.65
2023-05-30T22:46:45.898Z,6.97
2023-05-30T22:49:13.317Z,7.10
2023-05-30T22:51:41.718Z,9.48
2023-05-30T22:54:09.207Z,6.90
2023-05-30T22:56:36.480Z,6.45
2023-05-30T22:59:04.070Z,6.82
2023-05-30T23:01:31.497Z,6.63
2023-05-30T23:03:58.829Z,6.38
2023-05-30T23:06:26.167Z,7.25
2023-05-30T23:08:53.463Z,7.97
2023-05-30T23:11:21.525Z,7.38
2023-05-30T23:13:48.928Z,8.70
2023-05-30T23:16:16.447Z,6.88
2023-05-30T23:18:43.790Z,9.13
2023-05-30T23:21:11.423Z,6.47
2023-05-30T23:23:39.038Z,6.82
2023-05-30T23:26:06.424Z,6.90
2023-05-30T23:28:34.930Z,6.53
2023-05-30T23:31:02.474Z,7.82
2023-05-30T23:33:29.948Z,8.50
2023-05-30T23:35:57.335Z,7.28
2023-05-30T23:38:24.763Z,7.05
2023-05-30T23:40:52.093Z,7.75
2023-05-30T23:43:19.399Z,10.43
2023-05-30T23:45:46.698Z,6.57
2023-05-30T23:48:14.025Z,7.68
2023-05-30T23:50:41.727Z,7.47
2023-05-30T23:53:09.042Z,9.98
2023-05-30T23:55:36.295Z,7.55
2023-05-30T23:58:03.559Z,6.90
